Time;durP1;ratioP1;P1;durP2;ratioP2;P2;SDS_P1;SDS_P2;PMS_P1;PMS_P2;Temp;Humidity;BMP_temperature;BMP_pressure;BME280_temperature;BME280_humidity;BME280_pressure;Samples;Min_cycle;Max_cycle;Signal;HPM_P1;HPM_P2
2022/11/17 00:00:09;;;;;;;8.77;3.58;;;;;;;;;;5028112;28;20220;-66
2022/11/17 00:02:35;;;;;;;8.48;3.47;;;;;;;;;;5008008;28;20273;-67
2022/11/17 00:05:01;;;;;;;15.05;4.40;;;;;;;;;;5020487;28;20213;-66
2022/11/17 00:07:26;;;;;;;11.20;3.42;;;;;;;;;;5011088;28;20199;-66
2022/11/17 00:09:52;;;;;;;11.10;3.70;;;;;;;;;;5023680;28;20218;-67
2022/11/17 00:15:01;;;;;;;6.18;3.40;;;;;;;;;;5025992;28;20220;-67
2022/11/17 00:17:26;;;;;;;11.75;3.83;;;;;;;;;;5024216;28;20242;-67
2022/11/17 00:22:36;;;;;;;12.00;3.50;;;;;;;;;;5014946;28;20590;-67
2022/11/17 00:25:01;;;;;;;8.13;3.65;;;;;;;;;;5017599;28;20186;-67
2022/11/17 00:27:26;;;;;;;8.15;3.33;;;;;;;;;;5018460;28;20213;-67
2022/11/17 00:29:52;;;;;;;12.68;3.85;;;;;;;;;;5023463;28;20186;-67
2022/11/17 00:35:04;;;;;;;8.40;3.25;;;;;;;;;;5013146;28;20237;-67
2022/11/17 00:37:34;;;;;;;8.63;3.13;;;;;;;;;;5025401;28;20198;-67
2022/11/17 00:39:59;;;;;;;11.75;3.38;;;;;;;;;;5016367;28;20178;-67
2022/11/17 00:42:25;;;;;;;12.38;3.40;;;;;;;;;;5015185;28;20286;-67
2022/11/17 00:44:50;;;;;;;9.95;3.70;;;;;;;;;;5026126;28;20218;-67
2022/11/17 00:47:15;;;;;;;10.80;3.38;;;;;;;;;;5028391;28;20209;-67
2022/11/17 00:49:41;;;;;;;6.63;3.60;;;;;;;;;;5025739;28;20380;-68
2022/11/17 00:52:06;;;;;;;15.75;4.32;;;;;;;;;;5018286;28;20764;-67
2022/11/17 00:54:31;;;;;;;6.85;3.20;;;;;;;;;;5016356;28;20182;-67
2022/11/17 00:56:57;;;;;;;9.00;3.78;;;;;;;;;;5027375;28;20213;-67
2022/11/17 00:59:22;;;;;;;13.05;3.38;;;;;;;;;;5025964;28;20192;-68
2022/11/17 01:01:47;;;;;;;6.68;3.15;;;;;;;;;;5016071;28;20584;-67
2022/11/17 01:04:17;;;;;;;8.48;3.40;;;;;;;;;;5024021;28;20197;-67
2022/11/17 01:06:47;;;;;;;7.95;3.45;;;;;;;;;;5019855;28;20225;-67
2022/11/17 01:09:15;;;;;;;9.98;3.20;;;;;;;;;;5020890;28;20191;-67
2022/11/17 01:11:41;;;;;;;9.27;3.20;;;;;;;;;;5017926;28;20189;-67
2022/11/17 01:14:09;;;;;;;8.82;3.47;;;;;;;;;;5026892;28;20190;-67
2022/11/17 01:16:35;;;;;;;10.18;3.78;;;;;;;;;;5019948;28;20281;-67
2022/11/17 01:19:01;;;;;;;11.40;3.95;;;;;;;;;;5021576;28;20320;-67
2022/11/17 01:21:28;;;;;;;8.02;3.60;;;;;;;;;;5021137;28;20549;-67
2022/11/17 01:23:55;;;;;;;5.28;3.60;;;;;;;;;;5025340;28;20186;-68
2022/11/17 01:26:29;;;;;;;8.93;3.80;;;;;;;;;;5008444;28;20623;-68
2022/11/17 01:28:55;;;;;;;8.30;4.35;;;;;;;;;;5013112;28;20190;-67
2022/11/17 01:31:24;;;;;;;14.45;4.20;;;;;;;;;;5008121;28;20198;-67
2022/11/17 01:33:50;;;;;;;11.75;4.38;;;;;;;;;;5018436;28;20190;-68
2022/11/17 01:36:21;;;;;;;13.45;4.80;;;;;;;;;;5009508;28;20285;-69
2022/11/17 01:38:47;;;;;;;8.75;4.10;;;;;;;;;;5011232;28;20641;-69
2022/11/17 01:41:18;;;;;;;9.00;4.60;;;;;;;;;;5020955;28;20217;-70
2022/11/17 01:43:52;;;;;;;14.63;4.38;;;;;;;;;;5023390;28;20196;-70
2022/11/17 01:46:29;;;;;;;8.52;4.35;;;;;;;;;;5017929;28;20743;-70
2022/11/17 01:49:18;;;;;;;16.38;4.85;;;;;;;;;;5008080;28;20198;-69
2022/11/17 01:51:49;;;;;;;11.98;5.10;;;;;;;;;;5017707;28;20198;-69
2022/11/17 01:54:17;;;;;;;10.27;5.00;;;;;;;;;;5020997;28;20658;-69
2022/11/17 01:56:45;;;;;;;12.75;4.82;;;;;;;;;;5012816;28;20667;-69
2022/11/17 01:59:38;;;;;;;9.85;4.88;;;;;;;;;;5023647;28;20269;-69
2022/11/17 02:02:04;;;;;;;13.48;5.38;;;;;;;;;;5013071;28;20202;-70
2022/11/17 02:04:33;;;;;;;14.30;5.95;;;;;;;;;;5025004;28;20194;-70
2022/11/17 02:07:23;;;;;;;11.25;5.38;;;;;;;;;;5017812;28;20182;-69
2022/11/17 02:09:48;;;;;;;11.98;5.22;;;;;;;;;;5017520;28;20213;-70
2022/11/17 02:12:15;;;;;;;11.77;6.28;;;;;;;;;;5016207;28;20256;-70
2022/11/17 02:14:41;;;;;;;14.90;5.85;;;;;;;;;;5017629;28;20263;-70
2022/11/17 02:17:08;;;;;;;16.50;5.97;;;;;;;;;;5015734;28;20219;-70
2022/11/17 02:19:38;;;;;;;12.05;5.97;;;;;;;;;;5025719;28;20227;-71
2022/11/17 02:22:25;;;;;;;13.82;6.57;;;;;;;;;;5014965;28;20189;-69
2022/11/17 02:25:28;;;;;;;13.93;5.93;;;;;;;;;;5025477;28;20251;-70
2022/11/17 02:28:08;;;;;;;12.95;5.90;;;;;;;;;;5012171;28;20178;-70
2022/11/17 02:30:45;;;;;;;14.27;5.95;;;;;;;;;;5029823;28;20185;-71
2022/11/17 02:33:19;;;;;;;10.15;6.10;;;;;;;;;;5018268;28;20221;-71
2022/11/17 02:36:03;;;;;;;11.82;6.50;;;;;;;;;;5025401;28;20239;-71
2022/11/17 02:38:53;;;;;;;12.65;5.85;;;;;;;;;;5022899;28;20344;-71
2022/11/17 02:41:42;;;;;;;18.58;6.80;;;;;;;;;;5015933;28;20188;-71
2022/11/17 02:44:15;;;;;;;12.77;6.95;;;;;;;;;;5016540;28;20261;-71
2022/11/17 02:46:53;;;;;;;13.90;6.80;;;;;;;;;;5030106;28;20649;-71
2022/11/17 02:49:27;;;;;;;17.35;7.05;;;;;;;;;;5030565;28;20637;-71
2022/11/17 02:51:56;;;;;;;14.30;7.40;;;;;;;;;;5019943;28;20198;-71
2022/11/17 02:54:25;;;;;;;13.88;7.20;;;;;;;;;;5020737;28;20212;-71
2022/11/17 02:56:50;;;;;;;18.00;7.85;;;;;;;;;;5029008;28;20190;-71
2022/11/17 02:59:19;;;;;;;15.25;7.28;;;;;;;;;;5020957;28;20187;-70
2022/11/17 03:02:06;;;;;;;19.67;7.90;;;;;;;;;;5027037;28;20259;-70
2022/11/17 03:04:43;;;;;;;13.27;7.25;;;;;;;;;;5028932;28;20215;-70
2022/11/17 03:07:37;;;;;;;13.75;7.57;;;;;;;;;;5011404;28;20187;-70
2022/11/17 03:10:05;;;;;;;13.38;8.13;;;;;;;;;;5015112;28;20252;-69
2022/11/17 03:12:46;;;;;;;15.60;8.43;;;;;;;;;;5024639;28;20182;-69
2022/11/17 03:15:36;;;;;;;14.38;8.80;;;;;;;;;;5011357;28;21029;-69
2022/11/17 03:18:08;;;;;;;14.48;7.57;;;;;;;;;;5015656;28;20592;-69
2022/11/17 03:20:37;;;;;;;20.10;8.98;;;;;;;;;;5015183;28;20610;-69
2022/11/17 03:23:08;;;;;;;14.43;8.98;;;;;;;;;;5021097;28;20214;-69
2022/11/17 03:25:36;;;;;;;16.35;8.80;;;;;;;;;;5015562;28;20195;-68
2022/11/17 03:28:05;;;;;;;11.40;8.93;;;;;;;;;;5016290;28;20170;-68
2022/11/17 03:30:32;;;;;;;14.38;8.43;;;;;;;;;;5028052;28;20199;-69
2022/11/17 03:33:04;;;;;;;12.20;8.38;;;;;;;;;;5025142;28;20300;-68
2022/11/17 03:35:32;;;;;;;17.02;8.75;;;;;;;;;;5018865;28;20226;-68
2022/11/17 03:38:03;;;;;;;16.70;8.35;;;;;;;;;;5010315;28;20229;-68
2022/11/17 03:40:31;;;;;;;15.60;9.07;;;;;;;;;;5026071;28;20232;-68
2022/11/17 03:43:00;;;;;;;14.82;9.27;;;;;;;;;;5011617;28;20258;-68
2022/11/17 03:45:28;;;;;;;19.30;10.30;;;;;;;;;;5015208;28;20187;-69
2022/11/17 03:48:20;;;;;;;14.48;9.25;;;;;;;;;;5024418;28;20622;-68
2022/11/17 03:51:09;;;;;;;16.33;9.23;;;;;;;;;;5021520;28;20186;-68
2022/11/17 03:53:35;;;;;;;16.38;9.27;;;;;;;;;;5015589;28;20482;-68
2022/11/17 03:56:12;;;;;;;15.88;9.63;;;;;;;;;;5019812;28;20222;-67
2022/11/17 03:58:45;;;;;;;18.17;10.13;;;;;;;;;;5027563;28;20281;-68
2022/11/17 04:01:12;;;;;;;18.02;9.70;;;;;;;;;;5020084;28;20269;-68
2022/11/17 04:03:38;;;;;;;18.90;10.40;;;;;;;;;;5021275;28;20218;-68
2022/11/17 04:06:04;;;;;;;18.60;10.90;;;;;;;;;;5027109;28;20233;-67
2022/11/17 04:08:30;;;;;;;16.13;10.00;;;;;;;;;;5012387;28;20210;-67
2022/11/17 04:16:25;;;;;;;16.40;9.85;;;;;;;;;;5027327;28;20242;-66
2022/11/17 04:18:50;;;;;;;14.18;9.27;;;;;;;;;;5023719;28;20578;-66
2022/11/17 04:21:15;;;;;;;13.52;9.57;;;;;;;;;;5020403;28;20241;-66
2022/11/17 04:23:41;;;;;;;17.35;10.00;;;;;;;;;;5017653;28;20249;-66
2022/11/17 04:28:50;;;;;;;16.15;9.63;;;;;;;;;;5009596;28;20619;-67
2022/11/17 04:31:18;;;;;;;13.82;9.55;;;;;;;;;;5021700;28;20186;-68
2022/11/17 04:33:49;;;;;;;15.70;9.70;;;;;;;;;;5026533;28;20559;-68
2022/11/17 04:36:16;;;;;;;16.08;10.77;;;;;;;;;;5022726;28;20477;-69
2022/11/17 04:38:44;;;;;;;16.40;10.95;;;;;;;;;;5011979;28;20182;-69
2022/11/17 04:43:56;;;;;;;14.52;9.60;;;;;;;;;;5018747;28;20280;-69
2022/11/17 04:46:22;;;;;;;12.65;10.07;;;;;;;;;;5017246;28;20501;-69
2022/11/17 04:48:48;;;;;;;13.60;10.18;;;;;;;;;;5020170;28;20607;-70
2022/11/17 04:51:15;;;;;;;13.32;9.27;;;;;;;;;;5023036;28;20185;-69
2022/11/17 04:53:42;;;;;;;17.58;10.48;;;;;;;;;;5009284;28;20195;-69
2022/11/17 04:56:07;;;;;;;14.82;9.27;;;;;;;;;;5010901;28;20308;-68
2022/11/17 04:58:33;;;;;;;17.15;9.45;;;;;;;;;;5022255;28;20178;-71
2022/11/17 05:01:15;;;;;;;13.73;9.82;;;;;;;;;;5026419;28;20220;-70
2022/11/17 05:03:41;;;;;;;13.88;9.23;;;;;;;;;;5010789;28;20175;-70
2022/11/17 05:06:07;;;;;;;16.75;9.38;;;;;;;;;;5027797;28;20209;-71
2022/11/17 05:08:35;;;;;;;15.13;9.45;;;;;;;;;;5016962;28;20186;-69
2022/11/17 05:13:46;;;;;;;14.55;9.40;;;;;;;;;;5023456;28;20252;-69
2022/11/17 05:18:55;;;;;;;14.98;9.60;;;;;;;;;;5021825;28;20527;-69
2022/11/17 05:21:21;;;;;;;13.65;10.05;;;;;;;;;;5022423;28;20265;-69
2022/11/17 05:23:55;;;;;;;16.73;9.93;;;;;;;;;;5019591;28;20273;-69
2022/11/17 05:26:31;;;;;;;16.27;10.20;;;;;;;;;;5024852;28;20247;-69
2022/11/17 05:28:59;;;;;;;16.05;10.57;;;;;;;;;;5010632;28;20205;-69
2022/11/17 05:31:26;;;;;;;16.80;10.23;;;;;;;;;;5021413;28;20194;-69
2022/11/17 05:33:52;;;;;;;19.08;10.68;;;;;;;;;;5022676;28;20186;-69
2022/11/17 05:36:18;;;;;;;16.33;10.38;;;;;;;;;;5022219;28;20740;-69
2022/11/17 05:38:45;;;;;;;16.35;11.05;;;;;;;;;;5024550;28;20190;-69
2022/11/17 05:41:10;;;;;;;17.05;10.40;;;;;;;;;;5019231;28;20270;-69
2022/11/17 05:43:36;;;;;;;17.25;11.00;;;;;;;;;;5015057;28;20269;-69
2022/11/17 05:46:01;;;;;;;16.50;10.52;;;;;;;;;;5014378;28;20297;-69
2022/11/17 05:48:27;;;;;;;15.75;10.57;;;;;;;;;;5030979;28;20311;-69
2022/11/17 05:50:56;;;;;;;13.52;9.82;;;;;;;;;;5017990;28;20178;-69
2022/11/17 05:53:23;;;;;;;15.27;9.65;;;;;;;;;;5024811;28;20206;-69
2022/11/17 05:55:48;;;;;;;14.70;10.23;;;;;;;;;;5018872;28;20595;-69
2022/11/17 05:58:21;;;;;;;14.77;10.13;;;;;;;;;;5013814;28;20217;-68
2022/11/17 06:00:47;;;;;;;14.00;10.18;;;;;;;;;;5020892;28;20182;-69
2022/11/17 06:03:18;;;;;;;14.85;9.48;;;;;;;;;;5027139;28;20734;-68
2022/11/17 06:05:44;;;;;;;16.38;9.90;;;;;;;;;;5021118;28;20666;-67
2022/11/17 06:08:09;;;;;;;16.77;11.20;;;;;;;;;;5025382;28;20210;-68
2022/11/17 06:10:34;;;;;;;13.05;9.60;;;;;;;;;;5015450;28;20265;-68
2022/11/17 06:13:00;;;;;;;14.88;9.25;;;;;;;;;;5010006;28;20178;-67
2022/11/17 06:15:25;;;;;;;16.45;10.35;;;;;;;;;;5008045;28;20183;-67
2022/11/17 06:17:55;;;;;;;17.70;10.38;;;;;;;;;;5020908;28;20225;-68
2022/11/17 06:20:25;;;;;;;16.08;10.60;;;;;;;;;;5025662;28;20251;-67
2022/11/17 06:22:51;;;;;;;14.98;9.80;;;;;;;;;;5019110;28;20182;-67
2022/11/17 06:25:18;;;;;;;14.60;9.95;;;;;;;;;;5009175;28;20174;-67
2022/11/17 06:27:44;;;;;;;16.80;10.43;;;;;;;;;;5012198;28;20650;-67
2022/11/17 06:30:10;;;;;;;14.73;10.18;;;;;;;;;;5018608;28;20220;-68
2022/11/17 06:32:37;;;;;;;17.25;10.48;;;;;;;;;;5023329;28;20657;-67
2022/11/17 06:35:06;;;;;;;15.85;10.30;;;;;;;;;;5021658;28;20689;-67
2022/11/17 06:37:32;;;;;;;14.70;10.02;;;;;;;;;;5013709;28;20317;-67
2022/11/17 06:39:57;;;;;;;16.88;10.13;;;;;;;;;;5012957;28;20257;-67
2022/11/17 06:43:02;;;;;;;14.05;9.75;;;;;;;;;;5024496;28;20186;-67
2022/11/17 06:45:08;;;;;;;15.35;10.45;;;;;;;;;;5018161;28;20278;-67
2022/11/17 06:47:34;;;;;;;13.18;9.82;;;;;;;;;;5025337;28;20190;-67
2022/11/17 06:49:59;;;;;;;13.38;9.90;;;;;;;;;;5010891;28;20184;-67
2022/11/17 06:52:24;;;;;;;14.93;9.63;;;;;;;;;;5014246;28;20239;-67
2022/11/17 06:54:50;;;;;;;14.52;9.20;;;;;;;;;;5021100;28;20190;-67
2022/11/17 06:57:15;;;;;;;13.88;9.25;;;;;;;;;;5016876;28;20202;-68
2022/11/17 06:59:40;;;;;;;15.45;10.15;;;;;;;;;;5017618;28;20592;-67
2022/11/17 07:02:06;;;;;;;15.93;10.35;;;;;;;;;;5022370;28;20217;-68
2022/11/17 07:04:31;;;;;;;15.57;9.93;;;;;;;;;;5016585;28;20236;-68
2022/11/17 07:06:56;;;;;;;13.77;9.40;;;;;;;;;;5020351;28;20202;-67
2022/11/17 07:09:24;;;;;;;15.02;9.48;;;;;;;;;;5018016;28;20264;-69
2022/11/17 07:11:49;;;;;;;14.45;10.07;;;;;;;;;;5019905;28;20650;-69
2022/11/17 07:14:14;;;;;;;14.95;9.18;;;;;;;;;;5026462;28;20328;-69
2022/11/17 07:16:41;;;;;;;14.85;9.70;;;;;;;;;;5023132;28;20226;-70
2022/11/17 07:19:08;;;;;;;16.05;10.25;;;;;;;;;;5014972;28;20270;-70
2022/11/17 07:21:34;;;;;;;16.58;10.25;;;;;;;;;;5014801;28;20273;-70
2022/11/17 07:24:01;;;;;;;15.55;9.70;;;;;;;;;;5015800;28;20187;-69
2022/11/17 07:26:26;;;;;;;18.38;10.40;;;;;;;;;;5013149;28;20179;-69
2022/11/17 07:28:51;;;;;;;19.67;10.23;;;;;;;;;;5008393;28;20208;-70
2022/11/17 07:31:17;;;;;;;16.23;10.07;;;;;;;;;;5016364;28;20183;-69
2022/11/17 07:33:42;;;;;;;16.42;10.05;;;;;;;;;;5011009;28;20201;-70
2022/11/17 07:36:10;;;;;;;16.00;10.48;;;;;;;;;;5008487;28;20601;-70
2022/11/17 07:38:38;;;;;;;13.43;9.23;;;;;;;;;;5009414;28;20210;-69
2022/11/17 07:41:04;;;;;;;16.88;10.80;;;;;;;;;;5010292;28;20277;-70
2022/11/17 07:43:30;;;;;;;18.55;10.45;;;;;;;;;;5014650;28;20183;-69
2022/11/17 07:45:55;;;;;;;16.60;10.57;;;;;;;;;;5009349;28;20321;-69
2022/11/17 07:48:21;;;;;;;20.08;11.20;;;;;;;;;;5008791;28;20190;-69
2022/11/17 07:50:47;;;;;;;15.82;9.65;;;;;;;;;;5010041;28;20185;-69
2022/11/17 07:53:12;;;;;;;14.05;9.25;;;;;;;;;;5023404;28;20183;-69
2022/11/17 07:55:37;;;;;;;12.70;8.98;;;;;;;;;;5012107;28;20193;-68
2022/11/17 07:58:03;;;;;;;11.95;8.18;;;;;;;;;;5011892;28;20285;-69
2022/11/17 08:00:30;;;;;;;15.25;9.15;;;;;;;;;;5017870;28;20225;-69
2022/11/17 08:03:00;;;;;;;14.57;9.05;;;;;;;;;;5015038;28;20631;-69
2022/11/17 08:05:29;;;;;;;13.55;8.98;;;;;;;;;;5010600;28;20183;-69
2022/11/17 08:07:55;;;;;;;14.27;8.63;;;;;;;;;;5010710;28;20241;-69
2022/11/17 08:10:21;;;;;;;13.88;9.02;;;;;;;;;;5011188;28;20238;-69
2022/11/17 08:12:50;;;;;;;13.60;8.55;;;;;;;;;;5011711;28;20186;-69
2022/11/17 08:15:15;;;;;;;13.50;8.65;;;;;;;;;;5009053;28;20175;-69
2022/11/17 08:17:41;;;;;;;13.18;8.43;;;;;;;;;;5011907;28;20194;-69
2022/11/17 08:20:07;;;;;;;13.50;8.35;;;;;;;;;;5009528;28;20202;-69
2022/11/17 08:22:32;;;;;;;15.15;8.23;;;;;;;;;;5012104;28;20273;-69
2022/11/17 08:24:58;;;;;;;12.02;7.43;;;;;;;;;;5011323;28;20177;-69
2022/11/17 08:27:23;;;;;;;11.98;7.82;;;;;;;;;;5014305;28;20189;-69
2022/11/17 08:29:49;;;;;;;13.02;7.50;;;;;;;;;;5011564;28;20209;-70
2022/11/17 08:32:15;;;;;;;10.55;7.25;;;;;;;;;;5010643;28;20210;-70
2022/11/17 08:34:40;;;;;;;11.05;7.47;;;;;;;;;;5009813;28;20257;-71
2022/11/17 08:37:05;;;;;;;12.15;7.93;;;;;;;;;;5011421;28;20213;-71
2022/11/17 08:39:31;;;;;;;14.82;7.80;;;;;;;;;;5008942;28;20273;-70
2022/11/17 08:41:56;;;;;;;11.73;7.88;;;;;;;;;;5008634;28;20647;-70
2022/11/17 08:44:21;;;;;;;11.20;7.45;;;;;;;;;;5018183;28;20550;-70
2022/11/17 08:46:47;;;;;;;13.90;8.18;;;;;;;;;;5015301;28;20178;-70
2022/11/17 08:49:13;;;;;;;14.68;7.93;;;;;;;;;;5015050;28;20500;-70
2022/11/17 08:51:38;;;;;;;10.55;7.47;;;;;;;;;;5011052;28;20671;-70
2022/11/17 08:54:04;;;;;;;10.98;7.80;;;;;;;;;;5025479;28;20198;-70
2022/11/17 08:56:29;;;;;;;11.27;7.22;;;;;;;;;;5013784;28;20297;-70
2022/11/17 08:58:55;;;;;;;13.23;7.32;;;;;;;;;;5006567;28;20234;-69
2022/11/17 09:01:20;;;;;;;9.93;6.45;;;;;;;;;;5018328;28;20174;-70
2022/11/17 09:03:46;;;;;;;12.55;6.78;;;;;;;;;;5009355;28;20236;-69
2022/11/17 09:06:12;;;;;;;10.43;6.75;;;;;;;;;;5015463;28;20268;-69
2022/11/17 09:08:38;;;;;;;10.45;6.55;;;;;;;;;;5012060;28;20244;-70
2022/11/17 09:11:08;;;;;;;8.63;5.68;;;;;;;;;;5013996;28;20606;-69
2022/11/17 09:13:35;;;;;;;9.95;5.43;;;;;;;;;;5012980;28;20558;-69
2022/11/17 09:16:06;;;;;;;9.15;5.45;;;;;;;;;;5023955;28;20202;-69
2022/11/17 09:18:32;;;;;;;18.40;11.10;;;;;;;;;;5023093;28;20213;-69
2022/11/17 09:21:13;;;;;;;9.88;4.80;;;;;;;;;;5027099;28;20170;-68
2022/11/17 09:23:39;;;;;;;8.52;3.65;;;;;;;;;;5030942;28;20328;-68
2022/11/17 09:26:09;;;;;;;7.68;3.15;;;;;;;;;;5008905;28;20182;-68
2022/11/17 09:28:34;;;;;;;6.55;2.70;;;;;;;;;;5008296;28;20289;-68
2022/11/17 09:31:08;;;;;;;10.90;3.03;;;;;;;;;;5011013;28;20709;-68
2022/11/17 09:33:33;;;;;;;6.60;3.10;;;;;;;;;;5026060;28;20210;-68
2022/11/17 09:35:59;;;;;;;6.80;3.13;;;;;;;;;;5011607;28;20231;-67
2022/11/17 09:38:24;;;;;;;8.45;4.22;;;;;;;;;;5013075;28;20322;-68
2022/11/17 09:40:51;;;;;;;8.98;4.78;;;;;;;;;;5022036;28;20174;-68
2022/11/17 09:43:29;;;;;;;6.35;4.20;;;;;;;;;;5021986;28;20655;-69
2022/11/17 09:46:12;;;;;;;5.80;3.00;;;;;;;;;;5009413;28;20193;-69
2022/11/17 09:48:47;;;;;;;6.55;3.33;;;;;;;;;;5031362;28;20692;-69
2022/11/17 09:51:17;;;;;;;7.72;3.88;;;;;;;;;;5027789;28;20703;-70
2022/11/17 09:53:52;;;;;;;5.68;2.80;;;;;;;;;;5008611;28;20195;-70
2022/11/17 09:56:18;;;;;;;7.88;3.10;;;;;;;;;;5022284;28;20204;-70
2022/11/17 09:58:49;;;;;;;7.00;2.92;;;;;;;;;;5015532;28;20474;-70
2022/11/17 10:01:17;;;;;;;5.57;2.88;;;;;;;;;;5014347;28;20189;-70
2022/11/17 10:03:43;;;;;;;5.68;2.90;;;;;;;;;;5027759;28;20251;-70
2022/11/17 10:06:19;;;;;;;9.95;2.78;;;;;;;;;;5027038;28;20205;-70
2022/11/17 10:09:10;;;;;;;4.32;2.50;;;;;;;;;;5021986;28;20194;-68
2022/11/17 10:11:41;;;;;;;4.35;2.17;;;;;;;;;;5009029;28;20179;-69
2022/11/17 10:14:07;;;;;;;5.05;2.10;;;;;;;;;;5016591;28;20181;-69
2022/11/17 10:16:33;;;;;;;4.65;2.20;;;;;;;;;;5013345;28;20249;-68
2022/11/17 10:19:14;;;;;;;5.95;2.10;;;;;;;;;;5023405;28;20266;-69
2022/11/17 10:21:39;;;;;;;5.90;1.70;;;;;;;;;;5027103;28;20239;-70
2022/11/17 10:24:05;;;;;;;7.00;1.75;;;;;;;;;;5013262;28;20183;-69
2022/11/17 10:26:44;;;;;;;6.57;1.60;;;;;;;;;;5026202;28;20265;-69
2022/11/17 10:29:12;;;;;;;5.55;1.80;;;;;;;;;;5026431;28;20173;-69
2022/11/17 10:31:41;;;;;;;6.25;1.35;;;;;;;;;;5016426;28;20415;-69
2022/11/17 10:34:09;;;;;;;6.15;1.65;;;;;;;;;;5026479;28;20236;-69
2022/11/17 10:36:35;;;;;;;2.30;1.35;;;;;;;;;;5014638;28;20209;-68
2022/11/17 10:39:00;;;;;;;1.85;1.40;;;;;;;;;;5021681;28;20182;-69
2022/11/17 10:41:37;;;;;;;4.43;1.25;;;;;;;;;;5008768;28;20660;-69
2022/11/17 10:44:24;;;;;;;4.47;1.30;;;;;;;;;;5020655;28;20845;-69
2022/11/17 10:46:57;;;;;;;5.10;1.15;;;;;;;;;;5015115;28;20174;-68
2022/11/17 10:49:39;;;;;;;6.55;1.20;;;;;;;;;;5019211;28;20190;-69
2022/11/17 10:52:14;;;;;;;3.10;0.90;;;;;;;;;;5015153;28;20525;-69
2022/11/17 10:54:40;;;;;;;4.68;1.40;;;;;;;;;;5027250;28;20181;-69
2022/11/17 10:57:21;;;;;;;3.92;0.90;;;;;;;;;;5014927;28;20206;-69
2022/11/17 10:59:53;;;;;;;5.60;1.05;;;;;;;;;;5017112;28;20237;-69
2022/11/17 11:02:26;;;;;;;2.67;0.80;;;;;;;;;;5029028;28;20308;-69
2022/11/17 11:05:23;;;;;;;7.10;1.17;;;;;;;;;;5016481;28;20193;-69
2022/11/17 11:07:49;;;;;;;4.95;1.02;;;;;;;;;;5017253;28;20264;-69
2022/11/17 11:10:25;;;;;;;3.55;0.68;;;;;;;;;;5018132;28;20186;-69
2022/11/17 11:13:03;;;;;;;3.08;1.20;;;;;;;;;;5019818;28;20216;-70
2022/11/17 11:15:34;;;;;;;3.30;0.70;;;;;;;;;;5030888;28;20185;-70
2022/11/17 11:17:59;;;;;;;5.90;0.82;;;;;;;;;;5029568;28;20206;-69
2022/11/17 11:20:38;;;;;;;4.82;0.82;;;;;;;;;;5026890;28;20220;-69
2022/11/17 11:23:53;;;;;;;3.50;0.70;;;;;;;;;;5014469;28;20612;-70
2022/11/17 11:26:36;;;;;;;3.72;0.82;;;;;;;;;;4982443;28;20180;-69
2022/11/17 11:29:03;;;;;;;2.67;0.80;;;;;;;;;;5013010;28;20261;-69
2022/11/17 11:31:33;;;;;;;3.28;0.85;;;;;;;;;;5018393;28;20187;-69
2022/11/17 11:34:26;;;;;;;4.63;1.20;;;;;;;;;;5011640;28;20627;-69
2022/11/17 11:37:01;;;;;;;5.45;0.85;;;;;;;;;;5010074;28;20285;-69
2022/11/17 11:40:08;;;;;;;4.90;0.63;;;;;;;;;;5015536;28;20198;-69
2022/11/17 11:42:57;;;;;;;3.10;0.80;;;;;;;;;;5012213;28;20240;-69
2022/11/17 11:45:32;;;;;;;4.30;0.90;;;;;;;;;;5012014;28;20682;-69
2022/11/17 11:48:18;;;;;;;5.90;0.88;;;;;;;;;;5011768;28;20257;-69
2022/11/17 11:50:57;;;;;;;3.97;1.30;;;;;;;;;;5011198;28;20604;-69
2022/11/17 11:53:45;;;;;;;7.80;1.35;;;;;;;;;;5011726;28;20219;-68
2022/11/17 11:56:23;;;;;;;4.47;1.00;;;;;;;;;;5009834;28;20242;-69
2022/11/17 11:58:59;;;;;;;5.95;1.00;;;;;;;;;;5012632;28;20256;-68
2022/11/17 12:01:27;;;;;;;2.50;0.80;;;;;;;;;;5010185;28;20178;-68
2022/11/17 12:04:06;;;;;;;4.95;0.90;;;;;;;;;;5010517;28;20224;-68
2022/11/17 12:06:52;;;;;;;8.80;1.33;;;;;;;;;;5010732;28;20186;-68
2022/11/17 12:09:29;;;;;;;5.97;0.90;;;;;;;;;;5021268;28;20178;-68
2022/11/17 12:11:59;;;;;;;7.68;1.20;;;;;;;;;;5015271;28;20208;-68
2022/11/17 12:14:29;;;;;;;5.18;1.10;;;;;;;;;;5016165;28;20546;-69
2022/11/17 12:17:22;;;;;;;4.10;1.23;;;;;;;;;;5024655;28;20214;-69
2022/11/17 12:19:52;;;;;;;4.63;1.00;;;;;;;;;;5013815;28;20615;-69
2022/11/17 12:22:33;;;;;;;7.07;1.20;;;;;;;;;;5014735;28;20195;-68
2022/11/17 12:25:16;;;;;;;5.78;1.38;;;;;;;;;;5011823;28;20187;-68
2022/11/17 12:27:44;;;;;;;3.08;1.25;;;;;;;;;;5025178;28;20178;-68
2022/11/17 12:30:27;;;;;;;3.58;1.00;;;;;;;;;;5026730;28;20174;-68
2022/11/17 12:32:54;;;;;;;3.65;1.20;;;;;;;;;;5020997;28;20297;-68
2022/11/17 12:35:26;;;;;;;4.85;1.20;;;;;;;;;;5012257;28;20341;-68
2022/11/17 12:38:15;;;;;;;1.75;0.90;;;;;;;;;;5012748;28;20230;-68
2022/11/17 12:40:51;;;;;;;3.50;0.90;;;;;;;;;;5020566;28;20262;-68
2022/11/17 12:43:25;;;;;;;2.55;0.90;;;;;;;;;;5010598;28;20688;-68
2022/11/17 12:46:06;;;;;;;5.38;1.10;;;;;;;;;;5018265;28;20181;-69
2022/11/17 12:48:35;;;;;;;5.70;1.10;;;;;;;;;;5017141;28;20218;-68
2022/11/17 12:51:25;;;;;;;1.58;0.80;;;;;;;;;;5013525;28;20531;-68
2022/11/17 12:54:15;;;;;;;3.00;0.77;;;;;;;;;;5024548;28;20557;-69
2022/11/17 12:57:16;;;;;;;3.15;0.90;;;;;;;;;;5010753;28;20233;-68
2022/11/17 13:00:16;;;;;;;3.17;0.75;;;;;;;;;;5014549;28;20581;-67
2022/11/17 13:02:58;;;;;;;2.85;0.90;;;;;;;;;;5026219;28;20242;-69
2022/11/17 13:05:27;;;;;;;2.65;0.80;;;;;;;;;;5024237;28;20174;-67
2022/11/17 13:08:20;;;;;;;5.43;0.70;;;;;;;;;;5017898;28;20209;-67
2022/11/17 13:10:46;;;;;;;5.05;0.75;;;;;;;;;;5019010;28;20190;-68
2022/11/17 13:13:22;;;;;;;4.97;0.80;;;;;;;;;;5020695;28;20676;-68
2022/11/17 13:15:54;;;;;;;2.35;0.73;;;;;;;;;;5019970;28;20182;-68
2022/11/17 13:18:38;;;;;;;6.63;1.00;;;;;;;;;;5021443;28;20202;-68
2022/11/17 13:21:34;;;;;;;5.72;1.40;;;;;;;;;;5023736;28;20186;-67
2022/11/17 13:23:59;;;;;;;6.80;1.10;;;;;;;;;;5018813;28;20249;-67
2022/11/17 13:26:34;;;;;;;4.60;0.80;;;;;;;;;;5021865;28;20586;-67
2022/11/17 13:29:03;;;;;;;4.05;0.57;;;;;;;;;;5018966;28;20193;-67
2022/11/17 13:31:29;;;;;;;5.70;0.88;;;;;;;;;;5011031;28;20269;-67
2022/11/17 13:34:03;;;;;;;2.20;0.65;;;;;;;;;;5023946;28;20631;-67
2022/11/17 13:36:28;;;;;;;7.97;1.05;;;;;;;;;;5011840;28;20321;-68
2022/11/17 13:38:59;;;;;;;5.88;0.70;;;;;;;;;;5023657;28;20280;-67
2022/11/17 13:41:35;;;;;;;4.70;0.68;;;;;;;;;;5025154;28;20694;-67
2022/11/17 13:44:01;;;;;;;3.03;0.60;;;;;;;;;;5020709;28;20433;-67
2022/11/17 13:46:27;;;;;;;3.72;0.50;;;;;;;;;;5010089;28;20548;-67
2022/11/17 13:48:52;;;;;;;4.18;0.80;;;;;;;;;;5012906;28;20179;-67
2022/11/17 13:51:38;;;;;;;2.47;0.60;;;;;;;;;;5016939;28;20183;-68
2022/11/17 13:54:16;;;;;;;5.38;0.70;;;;;;;;;;5010609;28;20171;-68
2022/11/17 13:56:50;;;;;;;4.82;0.90;;;;;;;;;;5010061;28;20208;-68
2022/11/17 13:59:28;;;;;;;5.22;0.77;;;;;;;;;;5010822;28;20190;-68
2022/11/17 14:02:21;;;;;;;1.75;0.70;;;;;;;;;;5011830;28;20178;-68
2022/11/17 14:05:08;;;;;;;3.80;0.68;;;;;;;;;;5016012;28;20173;-69
2022/11/17 14:07:38;;;;;;;2.50;0.70;;;;;;;;;;5022465;28;20200;-68
2022/11/17 14:10:13;;;;;;;5.18;0.68;;;;;;;;;;5008188;28;20250;-68
2022/11/17 14:12:38;;;;;;;3.20;0.63;;;;;;;;;;5007608;28;20664;-68
2022/11/17 14:15:18;;;;;;;4.18;0.50;;;;;;;;;;5012941;28;20182;-68
2022/11/17 14:17:51;;;;;;;2.58;0.60;;;;;;;;;;5009372;28;20207;-68
2022/11/17 14:20:28;;;;;;;4.35;0.70;;;;;;;;;;5011391;28;20596;-68
2022/11/17 14:23:07;;;;;;;5.40;0.63;;;;;;;;;;5015549;28;20583;-68
2022/11/17 14:25:44;;;;;;;6.50;0.50;;;;;;;;;;5023938;28;20198;-68
2022/11/17 14:28:18;;;;;;;6.68;0.80;;;;;;;;;;5025613;28;20642;-68
2022/11/17 14:30:51;;;;;;;2.65;0.52;;;;;;;;;;5026346;28;20184;-68
2022/11/17 14:33:16;;;;;;;2.72;1.05;;;;;;;;;;5030836;28;20190;-68
2022/11/17 14:35:43;;;;;;;2.55;0.95;;;;;;;;;;5025439;28;20287;-68
2022/11/17 14:38:12;;;;;;;3.50;0.60;;;;;;;;;;5021255;28;20225;-68
2022/11/17 14:40:37;;;;;;;5.38;0.88;;;;;;;;;;5024666;28;20678;-68
2022/11/17 14:43:02;;;;;;;4.47;1.40;;;;;;;;;;5018123;28;20190;-68
2022/11/17 14:45:28;;;;;;;6.78;1.00;;;;;;;;;;5018591;28;20206;-68
2022/11/17 14:47:53;;;;;;;3.95;0.75;;;;;;;;;;5013300;28;20178;-68
2022/11/17 14:50:19;;;;;;;2.53;0.52;;;;;;;;;;5023539;28;20955;-67
2022/11/17 14:52:44;;;;;;;3.53;0.95;;;;;;;;;;5019870;28;20182;-68
2022/11/17 14:55:11;;;;;;;3.63;0.88;;;;;;;;;;5015250;28;20179;-68
2022/11/17 14:57:37;;;;;;;4.57;0.88;;;;;;;;;;5011525;28;20183;-68
2022/11/17 15:00:05;;;;;;;5.88;1.10;;;;;;;;;;5016619;28;20210;-68
2022/11/17 15:02:30;;;;;;;2.33;0.98;;;;;;;;;;5009791;28;20183;-68
2022/11/17 15:04:58;;;;;;;4.15;1.00;;;;;;;;;;5011396;28;20185;-68
2022/11/17 15:07:23;;;;;;;3.35;1.08;;;;;;;;;;5010742;28;20240;-68
2022/11/17 15:09:49;;;;;;;3.20;0.73;;;;;;;;;;5019810;28;20257;-67
2022/11/17 15:12:15;;;;;;;2.42;0.70;;;;;;;;;;5017473;28;20196;-68
2022/11/17 15:14:40;;;;;;;5.00;0.93;;;;;;;;;;5021965;28;20186;-68
2022/11/17 15:17:05;;;;;;;4.13;0.80;;;;;;;;;;5024387;28;20693;-68
2022/11/17 15:19:31;;;;;;;5.05;1.10;;;;;;;;;;4324986;28;10000813;-68